Time;durP1;ratioP1;P1;durP2;ratioP2;P2;SDS_P1;SDS_P2;PMS_P1;PMS_P2;Temp;Humidity;BMP_temperature;BMP_pressure;BME280_temperature;BME280_humidity;BME280_pressure;Samples;Min_cycle;Max_cycle;Signal;HPM_P1;HPM_P2
2022/08/09 00:02:44;;;;;;;4.03;2.50;;;;;15.90;97518.00;;;;5067792;28;20200;-87
2022/08/09 00:05:33;;;;;;;4.27;2.67;;;;;15.90;97512.00;;;;5068390;28;20208;-86
2022/08/09 00:08:22;;;;;;;3.67;2.27;;;;;15.90;97516.00;;;;5064981;28;20230;-85
2022/08/09 00:11:11;;;;;;;2.97;2.70;;;;;15.90;97502.00;;;;5064837;28;20246;-86
2022/08/09 00:14:02;;;;;;;4.43;2.40;;;;;15.90;97498.00;;;;5061497;28;20204;-86
2022/08/09 00:16:51;;;;;;;2.77;2.57;;;;;16.00;97499.00;;;;5068677;28;20200;-86
2022/08/09 00:19:40;;;;;;;3.13;2.43;;;;;15.60;97500.00;;;;5065447;28;20212;-86
2022/08/09 00:22:29;;;;;;;3.10;2.90;;;;;15.40;97496.00;;;;5069226;28;20223;-86
2022/08/09 00:25:18;;;;;;;2.90;2.70;;;;;15.70;97495.00;;;;5071494;28;20563;-86
2022/08/09 00:28:07;;;;;;;3.13;2.30;;;;;15.60;97496.00;;;;5072191;28;20568;-86
2022/08/09 00:30:58;;;;;;;6.30;2.30;;;;;15.50;97501.00;;;;5071241;28;20231;-86
2022/08/09 00:33:47;;;;;;;2.83;2.63;;;;;15.70;97504.00;;;;5061856;28;20223;-85
2022/08/09 00:36:36;;;;;;;3.67;2.80;;;;;15.80;97495.00;;;;5071553;28;20200;-87
2022/08/09 00:39:25;;;;;;;3.10;2.73;;;;;15.80;97504.00;;;;5071324;28;20671;-86
2022/08/09 00:42:14;;;;;;;3.10;2.77;;;;;15.90;97498.00;;;;5063531;28;20227;-85
2022/08/09 00:45:04;;;;;;;3.40;2.77;;;;;15.70;97486.00;;;;5060207;28;20567;-86
2022/08/09 00:47:55;;;;;;;2.33;2.20;;;;;15.60;97480.00;;;;5070921;28;20211;-86
2022/08/09 00:50:44;;;;;;;2.93;2.50;;;;;15.70;97482.00;;;;5070637;28;20251;-86
2022/08/09 00:53:33;;;;;;;4.20;2.50;;;;;15.00;97475.00;;;;5065516;28;20876;-86
2022/08/09 00:56:22;;;;;;;3.10;2.53;;;;;15.40;97482.00;;;;5065049;28;20736;-85
2022/08/09 00:59:11;;;;;;;3.17;2.87;;;;;15.20;97482.00;;;;5062656;28;20974;-86
2022/08/09 01:02:01;;;;;;;2.53;2.33;;;;;15.30;97488.00;;;;5064333;28;20232;-86
2022/08/09 01:04:57;;;;;;;2.80;2.60;;;;;15.40;97487.00;;;;5063227;28;20204;-87
2022/08/09 01:07:54;;;;;;;4.53;2.60;;;;;15.50;97494.00;;;;5059717;28;20205;-86
2022/08/09 01:10:51;;;;;;;2.90;2.67;;;;;15.50;97497.00;;;;5067501;28;20227;-86
2022/08/09 01:13:50;;;;;;;2.90;2.70;;;;;15.60;97482.00;;;;5067826;28;20208;-87
2022/08/09 01:16:43;;;;;;;3.63;2.70;;;;;15.40;97490.00;;;;5094037;28;20194;-86
2022/08/09 01:19:43;;;;;;;3.20;2.83;;;;;15.40;97503.00;;;;5078099;28;20568;-86
2022/08/09 01:22:43;;;;;;;3.03;2.70;;;;;15.00;97500.00;;;;5074726;28;20231;-87
2022/08/09 01:25:43;;;;;;;2.77;2.57;;;;;14.70;97495.00;;;;5073862;28;20227;-87
2022/08/09 01:28:34;;;;;;;3.70;3.20;;;;;14.50;97492.00;;;;5073377;28;20443;-87
2022/08/09 01:31:26;;;;;;;3.07;2.77;;;;;14.90;97489.00;;;;5073117;28;20218;-87
2022/08/09 01:34:18;;;;;;;3.55;3.25;;;;;14.40;97495.00;;;;5071314;28;20392;-87
2022/08/09 01:37:10;;;;;;;2.63;2.43;;;;;14.70;97496.00;;;;5073145;28;20215;-86
2022/08/09 01:40:02;;;;;;;3.93;2.90;;;;;14.50;97496.00;;;;5068293;28;20200;-87
2022/08/09 01:42:52;;;;;;;2.90;2.60;;;;;14.30;97493.00;;;;5068878;28;20234;-86
2022/08/09 01:45:43;;;;;;;3.07;2.87;;;;;14.00;97490.00;;;;5067139;28;20582;-86
2022/08/09 01:48:34;;;;;;;4.03;3.30;;;;;13.90;97498.00;;;;5067638;28;20200;-84
2022/08/09 01:51:24;;;;;;;3.07;2.77;;;;;14.10;97501.00;;;;5064715;28;20223;-86
2022/08/09 01:54:15;;;;;;;2.87;2.57;;;;;14.40;97500.00;;;;5061895;28;20239;-86
2022/08/09 01:57:07;;;;;;;3.67;3.37;;;;;14.40;97496.00;;;;5066783;28;20696;-85
2022/08/09 01:59:58;;;;;;;3.20;3.00;;;;;14.70;97513.00;;;;5069585;28;20204;-84
2022/08/09 02:02:51;;;;;;;3.37;3.07;;;;;14.40;97515.00;;;;5066286;28;20235;-87
2022/08/09 02:05:41;;;;;;;6.07;3.10;;;;;14.40;97514.00;;;;5070697;28;20204;-87
2022/08/09 02:08:32;;;;;;;6.27;3.57;;;;;14.50;97514.00;;;;5071793;28;20204;-87
2022/08/09 02:11:22;;;;;;;3.77;3.00;;;;;14.60;97523.00;;;;5065757;28;20231;-86
2022/08/09 02:14:12;;;;;;;3.93;3.07;;;;;14.50;97521.00;;;;5063934;28;20207;-86
2022/08/09 02:17:01;;;;;;;4.00;3.07;;;;;14.50;97518.00;;;;5068611;28;20574;-86
2022/08/09 02:19:52;;;;;;;2.53;2.33;;;;;14.40;97514.00;;;;5066728;28;20196;-87
2022/08/09 02:22:43;;;;;;;9.10;3.87;;;;;14.10;97525.00;;;;5070732;28;20641;-86
2022/08/09 02:25:34;;;;;;;3.63;3.33;;;;;14.10;97512.00;;;;5070404;28;20215;-87
2022/08/09 02:28:27;;;;;;;4.17;2.90;;;;;14.30;97513.00;;;;5067248;28;20227;-86
2022/08/09 02:31:20;;;;;;;3.23;3.03;;;;;14.20;97522.00;;;;5063264;28;20741;-88
2022/08/09 02:34:13;;;;;;;3.97;3.63;;;;;14.10;97516.00;;;;5065908;28;20200;-86
2022/08/09 02:37:06;;;;;;;4.03;3.53;;;;;14.00;97510.00;;;;5068457;28;20238;-87
2022/08/09 02:39:59;;;;;;;3.53;3.23;;;;;14.20;97509.00;;;;5069939;28;20204;-86
2022/08/09 02:42:50;;;;;;;4.00;3.50;;;;;14.20;97510.00;;;;5067194;28;20227;-85
2022/08/09 02:45:42;;;;;;;3.37;3.17;;;;;14.40;97503.00;;;;5066918;28;20586;-86
2022/08/09 02:48:32;;;;;;;3.10;2.80;;;;;14.60;97503.00;;;;5060770;28;20223;-86
2022/08/09 02:51:22;;;;;;;3.30;3.00;;;;;14.40;97504.00;;;;5070321;28;20227;-86
2022/08/09 02:54:14;;;;;;;3.50;3.20;;;;;14.20;97498.00;;;;5070333;28;20200;-86
2022/08/09 02:57:05;;;;;;;3.40;3.10;;;;;14.10;97510.00;;;;5068644;28;20200;-85
2022/08/09 02:59:55;;;;;;;3.77;3.33;;;;;14.30;97492.00;;;;5069889;28;20204;-85
2022/08/09 03:02:48;;;;;;;3.37;3.07;;;;;14.10;97488.00;;;;5067501;28;20253;-86
2022/08/09 03:05:39;;;;;;;4.67;3.67;;;;;14.40;97495.00;;;;5071153;28;20200;-85
2022/08/09 03:08:29;;;;;;;4.00;2.93;;;;;13.70;97486.00;;;;5065184;28;20208;-86
2022/08/09 03:11:21;;;;;;;3.50;3.20;;;;;13.60;97474.00;;;;5064185;28;20229;-87
2022/08/09 03:14:10;;;;;;;7.60;3.70;;;;;13.70;97480.00;;;;5068365;28;20280;-88
2022/08/09 03:17:00;;;;;;;4.27;3.43;;;;;14.10;97480.00;;;;5068288;28;20553;-87
2022/08/09 03:19:50;;;;;;;4.80;3.80;;;;;14.20;97480.00;;;;5068499;28;20200;-87
2022/08/09 03:22:42;;;;;;;3.73;3.43;;;;;13.80;97479.00;;;;5067973;28;20251;-87
2022/08/09 03:25:31;;;;;;;4.93;2.87;;;;;13.40;97471.00;;;;5064115;28;20585;-88
2022/08/09 03:28:22;;;;;;;3.73;3.07;;;;;13.00;97468.00;;;;5061178;28;20212;-85
2022/08/09 03:31:11;;;;;;;5.47;3.50;;;;;13.30;97474.00;;;;5064906;28;20235;-88
2022/08/09 03:34:01;;;;;;;3.70;3.40;;;;;13.30;97480.00;;;;5061449;28;20199;-85
2022/08/09 03:36:50;;;;;;;4.80;4.13;;;;;13.40;97478.00;;;;5058771;28;20371;-87
2022/08/09 03:39:39;;;;;;;7.63;3.87;;;;;13.00;97460.00;;;;5069161;28;20204;-85
2022/08/09 03:42:28;;;;;;;3.93;3.63;;;;;13.60;97467.00;;;;5058922;28;20265;-87
2022/08/09 03:45:19;;;;;;;4.00;3.67;;;;;13.40;97461.00;;;;5065306;28;20263;-86
2022/08/09 03:48:08;;;;;;;3.53;3.23;;;;;13.40;97461.00;;;;5064314;28;20237;-87
2022/08/09 03:50:57;;;;;;;6.30;3.33;;;;;13.30;97465.00;;;;5068594;28;20228;-87
2022/08/09 03:53:47;;;;;;;4.10;3.80;;;;;13.50;97469.00;;;;5067902;28;20219;-86
2022/08/09 03:56:36;;;;;;;5.33;4.27;;;;;13.80;97470.00;;;;5064352;28;20208;-86
2022/08/09 03:59:26;;;;;;;6.63;3.90;;;;;13.70;97467.00;;;;5064592;28;20658;-86
2022/08/09 04:02:17;;;;;;;3.73;3.43;;;;;13.80;97464.00;;;;5080202;28;20233;-86
2022/08/09 04:05:07;;;;;;;7.40;4.30;;;;;13.60;97466.00;;;;5087963;28;20219;-87
2022/08/09 04:07:56;;;;;;;3.83;3.53;;;;;13.50;97461.00;;;;5071582;28;20199;-86
2022/08/09 04:10:45;;;;;;;4.23;3.57;;;;;13.70;97465.00;;;;5057703;28;20252;-86
2022/08/09 04:13:34;;;;;;;4.33;4.03;;;;;13.80;97469.00;;;;5074377;28;20204;-88
2022/08/09 04:16:23;;;;;;;5.30;3.80;;;;;13.70;97463.00;;;;5075702;28;20579;-85
2022/08/09 04:19:13;;;;;;;7.17;5.17;;;;;13.90;97460.00;;;;5074644;28;20200;-86
2022/08/09 04:22:03;;;;;;;3.83;3.43;;;;;13.80;97462.00;;;;5061378;28;20222;-87
2022/08/09 04:24:53;;;;;;;4.67;4.17;;;;;14.10;97466.00;;;;5063232;28;20206;-86
2022/08/09 04:27:42;;;;;;;5.10;3.80;;;;;13.60;97452.00;;;;5069368;28;20709;-87
2022/08/09 04:30:31;;;;;;;6.00;4.00;;;;;13.80;97470.00;;;;5063100;28;20220;-86
2022/08/09 04:33:20;;;;;;;4.10;3.40;;;;;13.70;97464.00;;;;5073888;28;20204;-87
2022/08/09 04:36:11;;;;;;;3.67;3.37;;;;;13.70;97468.00;;;;5073216;28;20211;-86
2022/08/09 04:39:01;;;;;;;3.97;3.57;;;;;13.80;97460.00;;;;5073096;28;20246;-86
2022/08/09 04:41:50;;;;;;;4.27;3.80;;;;;13.90;97456.00;;;;5059056;28;20260;-87
2022/08/09 04:44:40;;;;;;;4.20;3.80;;;;;13.90;97454.00;;;;5061396;28;20220;-86
2022/08/09 04:47:29;;;;;;;3.60;3.10;;;;;14.00;97457.00;;;;5073557;28;20728;-87
2022/08/09 04:50:19;;;;;;;11.37;4.00;;;;;13.80;97462.00;;;;5059568;28;20204;-85
2022/08/09 04:53:09;;;;;;;5.13;4.20;;;;;14.00;97461.00;;;;5072161;28;20211;-86
2022/08/09 04:55:59;;;;;;;4.13;3.73;;;;;13.90;97471.00;;;;5070646;28;20448;-88
2022/08/09 04:58:48;;;;;;;3.63;3.33;;;;;14.20;97458.00;;;;5060701;28;20200;-86
2022/08/09 05:01:37;;;;;;;4.10;3.80;;;;;14.50;97464.00;;;;5069169;28;20231;-86
2022/08/09 05:04:26;;;;;;;4.30;3.90;;;;;14.60;97470.00;;;;5072506;28;20228;-87
2022/08/09 05:07:15;;;;;;;3.60;3.30;;;;;14.90;97469.00;;;;5072472;28;20202;-84
2022/08/09 05:10:07;;;;;;;4.03;3.73;;;;;15.10;97465.00;;;;5066743;28;20212;-85
2022/08/09 05:12:56;;;;;;;6.53;4.73;;;;;15.30;97469.00;;;;5109348;22;20236;-69
2022/08/09 05:15:45;;;;;;;4.70;4.30;;;;;15.20;97470.00;;;;5102337;28;20202;-70
2022/08/09 05:18:35;;;;;;;4.83;3.70;;;;;15.40;97469.00;;;;5096313;28;20206;-71
2022/08/09 05:21:24;;;;;;;5.90;4.43;;;;;15.40;97463.00;;;;5090955;28;20219;-71
2022/08/09 05:24:13;;;;;;;3.63;3.13;;;;;15.50;97456.00;;;;5083992;28;20227;-67
2022/08/09 05:27:03;;;;;;;3.73;3.40;;;;;15.60;97457.00;;;;5084972;28;20207;-69
2022/08/09 05:29:52;;;;;;;3.70;3.40;;;;;15.70;97448.00;;;;5077779;28;20575;-70
2022/08/09 05:32:41;;;;;;;7.07;3.67;;;;;15.60;97458.00;;;;5078765;28;20233;-68
2022/08/09 05:35:30;;;;;;;3.87;3.57;;;;;15.40;97455.00;;;;5083952;28;20595;-70
2022/08/09 05:38:19;;;;;;;4.10;3.80;;;;;15.60;97451.00;;;;5091462;28;20206;-67
2022/08/09 05:41:09;;;;;;;3.63;3.30;;;;;16.00;97448.00;;;;5090255;28;20223;-69
2022/08/09 05:43:59;;;;;;;4.67;4.27;;;;;16.60;97460.00;;;;5088342;28;20226;-69
2022/08/09 05:46:48;;;;;;;4.30;3.90;;;;;17.00;97451.00;;;;5091032;28;20576;-70
2022/08/09 05:49:37;;;;;;;6.33;4.10;;;;;17.30;97443.00;;;;5076767;28;20199;-68
2022/08/09 05:52:26;;;;;;;5.73;3.97;;;;;17.60;97449.00;;;;5075917;28;20220;-68
2022/08/09 05:55:15;;;;;;;5.47;4.07;;;;;17.90;97449.00;;;;5073441;28;20195;-70
2022/08/09 05:58:04;;;;;;;3.77;3.47;;;;;18.20;97452.00;;;;5080509;28;20574;-70
2022/08/09 06:00:55;;;;;;;8.37;4.10;;;;;18.40;97451.00;;;;5084638;28;20230;-70
2022/08/09 06:03:44;;;;;;;5.37;3.37;;;;;18.60;97450.00;;;;5084100;28;20596;-69
2022/08/09 06:06:33;;;;;;;5.93;3.80;;;;;18.70;97448.00;;;;5083307;28;20211;-68
2022/08/09 06:09:22;;;;;;;4.37;3.97;;;;;18.70;97449.00;;;;5077942;28;20200;-71
2022/08/09 06:12:11;;;;;;;3.70;2.80;;;;;19.10;97439.00;;;;5079390;28;20599;-70
2022/08/09 06:15:00;;;;;;;3.70;3.30;;;;;19.20;97443.00;;;;5082835;28;20578;-70
2022/08/09 06:17:52;;;;;;;3.70;3.13;;;;;19.20;97445.00;;;;5080177;28;20207;-70
2022/08/09 06:20:41;;;;;;;5.47;3.43;;;;;19.50;97440.00;;;;5076784;28;20230;-69
2022/08/09 06:23:32;;;;;;;5.03;3.27;;;;;19.70;97446.00;;;;5081468;28;20203;-69
2022/08/09 06:26:21;;;;;;;11.37;4.93;;;;;19.80;97440.00;;;;5075415;28;20245;-68
2022/08/09 06:29:11;;;;;;;3.10;2.80;;;;;19.90;97448.00;;;;5078391;28;20196;-69
2022/08/09 06:32:00;;;;;;;4.07;3.30;;;;;20.10;97445.00;;;;5080954;28;20223;-68
2022/08/09 06:34:50;;;;;;;3.27;2.83;;;;;20.20;97447.00;;;;5074675;28;20203;-67
2022/08/09 06:37:40;;;;;;;5.20;2.97;;;;;20.50;97455.00;;;;5080090;28;20191;-67
2022/08/09 06:40:30;;;;;;;3.03;2.70;;;;;20.30;97456.00;;;;5078437;28;20587;-65
2022/08/09 06:43:19;;;;;;;3.23;2.40;;;;;20.60;97453.00;;;;5074897;28;20600;-67
2022/08/09 06:46:08;;;;;;;4.07;3.00;;;;;20.80;97456.00;;;;5075588;28;20199;-67
2022/08/09 06:48:57;;;;;;;3.23;2.03;;;;;20.80;97457.00;;;;5089917;28;20218;-68
2022/08/09 06:51:49;;;;;;;2.90;2.70;;;;;20.90;97451.00;;;;5084732;28;20689;-67
2022/08/09 06:54:38;;;;;;;3.00;2.20;;;;;20.90;97464.00;;;;5075661;28;20242;-69
2022/08/09 06:57:27;;;;;;;2.70;2.50;;;;;21.20;97460.00;;;;5082103;28;20204;-69
2022/08/09 07:00:16;;;;;;;2.60;2.40;;;;;21.30;97462.00;;;;5088231;28;20221;-69
2022/08/09 07:03:05;;;;;;;2.80;2.60;;;;;21.50;97463.00;;;;5087294;28;20199;-68
2022/08/09 07:05:55;;;;;;;3.17;2.53;;;;;21.70;97467.00;;;;5093677;28;20229;-69
2022/08/09 07:08:45;;;;;;;3.00;2.20;;;;;21.60;97465.00;;;;5087988;28;20213;-68
2022/08/09 07:11:34;;;;;;;2.57;2.37;;;;;21.80;97470.00;;;;5088121;28;20255;-68
2022/08/09 07:14:23;;;;;;;2.30;2.10;;;;;20.90;97465.00;;;;5069337;28;20681;-70
2022/08/09 07:17:13;;;;;;;5.07;2.23;;;;;22.00;97471.00;;;;5079063;28;20577;-68
2022/08/09 07:20:02;;;;;;;9.70;3.37;;;;;22.10;97482.00;;;;5076606;28;20210;-68
2022/08/09 07:22:51;;;;;;;2.53;2.30;;;;;22.20;97477.00;;;;5081943;28;20195;-69
2022/08/09 07:25:41;;;;;;;2.73;2.00;;;;;22.40;97472.00;;;;5087069;28;20600;-69
2022/08/09 07:28:31;;;;;;;2.70;1.77;;;;;22.60;97469.00;;;;5073138;28;20207;-68
2022/08/09 07:31:20;;;;;;;2.17;2.00;;;;;22.80;97488.00;;;;5084205;28;20522;-68
2022/08/09 07:34:09;;;;;;;2.43;2.23;;;;;22.90;97480.00;;;;5081646;28;20609;-68
2022/08/09 07:36:58;;;;;;;2.20;1.93;;;;;22.90;97471.00;;;;5084065;28;20211;-69
2022/08/09 07:39:47;;;;;;;1.97;1.87;;;;;22.80;97468.00;;;;5076330;28;20214;-69
2022/08/09 07:42:51;;;;;;;2.17;1.73;;;;;22.60;97464.00;;;;5078684;28;20223;-68
2022/08/09 07:45:40;;;;;;;2.57;1.67;;;;;23.20;97470.00;;;;5089454;28;20237;-68
2022/08/09 07:48:30;;;;;;;4.47;2.00;;;;;23.10;97469.00;;;;5075007;28;20203;-68
2022/08/09 07:51:19;;;;;;;1.80;1.70;;;;;23.20;97476.00;;;;5086720;28;20231;-68
2022/08/09 07:54:08;;;;;;;2.83;2.00;;;;;23.50;97476.00;;;;5079156;28;20229;-68
2022/08/09 07:56:58;;;;;;;2.57;1.60;;;;;23.40;97479.00;;;;5080285;28;20203;-68
2022/08/09 07:59:48;;;;;;;2.20;2.00;;;;;23.30;97477.00;;;;5077298;28;20206;-67
2022/08/09 08:02:37;;;;;;;1.67;1.50;;;;;23.70;97479.00;;;;5072860;28;20235;-69
2022/08/09 08:05:26;;;;;;;2.03;1.83;;;;;23.70;97474.00;;;;5086877;28;20230;-70
2022/08/09 08:08:16;;;;;;;2.97;1.73;;;;;23.60;97480.00;;;;5080173;28;20696;-67
2022/08/09 08:11:05;;;;;;;2.10;1.60;;;;;23.80;97469.00;;;;5081638;28;20235;-67
2022/08/09 08:13:54;;;;;;;1.90;1.47;;;;;24.30;97464.00;;;;5079414;28;20211;-68
2022/08/09 08:16:44;;;;;;;2.00;1.50;;;;;23.90;97469.00;;;;5080588;28;20669;-69
2022/08/09 08:19:33;;;;;;;1.43;1.33;;;;;24.50;97475.00;;;;5078791;28;20229;-68
2022/08/09 08:22:22;;;;;;;1.67;1.50;;;;;24.60;97479.00;;;;5077529;28;20224;-67
2022/08/09 08:25:13;;;;;;;1.63;1.50;;;;;24.50;97476.00;;;;5079325;28;20604;-70
2022/08/09 08:28:02;;;;;;;2.03;1.57;;;;;24.80;97481.00;;;;5081424;28;20230;-69
2022/08/09 08:30:51;;;;;;;1.63;1.53;;;;;24.10;97476.00;;;;5085599;28;20226;-68
2022/08/09 08:33:42;;;;;;;1.57;1.47;;;;;24.80;97469.00;;;;5089233;28;20222;-69
2022/08/09 08:36:31;;;;;;;2.87;1.50;;;;;24.90;97473.00;;;;5089285;28;20199;-69
2022/08/09 08:39:20;;;;;;;2.10;1.50;;;;;25.20;97479.00;;;;5080408;28;20207;-68
2022/08/09 08:42:09;;;;;;;2.10;1.70;;;;;25.50;97484.00;;;;5078892;28;20227;-68
2022/08/09 08:45:00;;;;;;;2.07;1.33;;;;;25.70;97488.00;;;;5080169;28;20215;-70
2022/08/09 08:47:49;;;;;;;1.57;1.47;;;;;25.80;97478.00;;;;5081122;28;20472;-70
2022/08/09 08:50:40;;;;;;;1.90;1.80;;;;;25.10;97471.00;;;;5082831;28;20200;-68
2022/08/09 08:53:29;;;;;;;2.33;1.50;;;;;26.00;97479.00;;;;5085195;28;20196;-68
2022/08/09 08:56:18;;;;;;;1.77;1.60;;;;;25.90;97476.00;;;;5081162;28;20191;-67
2022/08/09 08:59:08;;;;;;;1.50;1.33;;;;;25.60;97479.00;;;;5083357;28;20682;-68
2022/08/09 09:01:57;;;;;;;1.13;1.10;;;;;26.40;97486.00;;;;5080606;28;20231;-69
2022/08/09 09:04:46;;;;;;;1.53;1.23;;;;;25.80;97479.00;;;;5086748;28;20211;-68
2022/08/09 09:07:37;;;;;;;1.60;1.10;;;;;26.30;97490.00;;;;5082575;28;20212;-69
2022/08/09 09:10:27;;;;;;;2.00;1.20;;;;;26.40;97480.00;;;;5088920;28;20196;-67
2022/08/09 09:13:18;;;;;;;1.43;1.30;;;;;26.10;97489.00;;;;5079163;28;20224;-68
2022/08/09 09:16:09;;;;;;;2.27;1.20;;;;;26.10;97487.00;;;;5089324;28;20705;-68
2022/08/09 09:18:58;;;;;;;1.30;1.03;;;;;25.80;97476.00;;;;5070770;28;20204;-68
2022/08/09 09:22:03;;;;;;;2.33;1.60;;;;;26.30;97474.00;;;;5083536;28;20228;-68
2022/08/09 09:24:56;;;;;;;1.27;1.03;;;;;26.20;97476.00;;;;5090247;28;20215;-68
2022/08/09 09:27:56;;;;;;;1.67;1.00;;;;;26.90;97466.00;;;;5089886;28;20558;-65
2022/08/09 09:30:56;;;;;;;1.47;1.37;;;;;27.30;97464.00;;;;5082420;28;20233;-68
2022/08/09 09:33:45;;;;;;;3.13;1.40;;;;;27.30;97469.00;;;;5090434;28;20214;-67
2022/08/09 09:36:40;;;;;;;3.97;1.47;;;;;25.70;97473.00;;;;5087132;28;20215;-68
2022/08/09 09:39:31;;;;;;;2.50;1.10;;;;;26.60;97470.00;;;;5082052;28;20202;-67
2022/08/09 09:42:28;;;;;;;4.03;1.23;;;;;27.00;97476.00;;;;5075657;28;20239;-67
2022/08/09 09:45:18;;;;;;;2.00;1.47;;;;;26.80;97470.00;;;;5084828;28;20306;-69
2022/08/09 09:48:07;;;;;;;1.17;1.07;;;;;27.30;97477.00;;;;5084924;28;20203;-68
2022/08/09 09:50:57;;;;;;;3.97;1.50;;;;;27.70;97471.00;;;;5083870;28;20296;-70
2022/08/09 09:53:46;;;;;;;2.13;1.47;;;;;28.00;97460.00;;;;5077119;28;20210;-68
2022/08/09 09:56:37;;;;;;;2.00;1.20;;;;;28.20;97463.00;;;;5078812;28;20264;-67
2022/08/09 09:59:35;;;;;;;8.70;1.63;;;;;27.10;97465.00;;;;5083548;28;20201;-68
2022/08/09 10:02:25;;;;;;;3.27;1.37;;;;;28.50;97464.00;;;;5087917;28;20236;-68
2022/08/09 10:05:14;;;;;;;4.33;1.40;;;;;29.00;97466.00;;;;5070561;28;20193;-68
2022/08/09 10:08:05;;;;;;;2.60;1.20;;;;;28.80;97456.00;;;;5071292;28;20661;-68
2022/08/09 10:10:54;;;;;;;1.27;1.07;;;;;28.60;97460.00;;;;5079484;28;20236;-68
2022/08/09 10:13:43;;;;;;;2.27;1.67;;;;;27.90;97450.00;;;;5083489;28;20223;-70
2022/08/09 10:16:35;;;;;;;1.20;1.10;;;;;29.10;97456.00;;;;5084180;28;20206;-69
2022/08/09 10:19:35;;;;;;;1.30;1.20;;;;;29.80;97456.00;;;;5075873;28;20603;-68
2022/08/09 10:22:32;;;;;;;2.23;1.13;;;;;29.30;97448.00;;;;5080306;28;20219;-67
2022/08/09 10:25:23;;;;;;;1.30;1.20;;;;;28.60;97440.00;;;;5089015;28;20557;-69
2022/08/09 10:28:12;;;;;;;2.37;1.10;;;;;29.80;97444.00;;;;5083946;28;20200;-68
2022/08/09 10:31:02;;;;;;;2.23;0.97;;;;;29.70;97461.00;;;;5076381;28;20223;-68
2022/08/09 10:34:13;;;;;;;1.83;1.40;;;;;29.50;97434.00;;;;5067032;28;20284;-68
2022/08/09 10:37:03;;;;;;;2.03;1.10;;;;;28.80;97440.00;;;;5078778;28;20211;-67
2022/08/09 10:39:52;;;;;;;3.83;1.07;;;;;29.40;97437.00;;;;5068321;28;20209;-67
2022/08/09 10:42:41;;;;;;;4.03;1.30;;;;;30.00;97434.00;;;;5079101;28;20209;-67
2022/08/09 10:45:31;;;;;;;0.90;0.90;;;;;30.00;97431.00;;;;5087872;28;20204;-69
2022/08/09 10:48:24;;;;;;;1.57;1.00;;;;;29.40;97421.00;;;;5081449;28;20215;-70
2022/08/09 10:51:21;;;;;;;1.20;0.93;;;;;29.60;97427.00;;;;5086518;28;20292;-69
2022/08/09 10:54:12;;;;;;;3.13;0.90;;;;;29.80;97429.00;;;;5085029;28;20589;-68
2022/08/09 10:57:09;;;;;;;1.63;0.93;;;;;29.80;97420.00;;;;5088628;28;20201;-68
2022/08/09 10:59:59;;;;;;;1.97;1.03;;;;;29.90;97418.00;;;;5086972;28;20206;-69
2022/08/09 11:02:48;;;;;;;3.07;1.27;;;;;28.80;97414.00;;;;5086832;28;20204;-68
2022/08/09 11:05:37;;;;;;;1.10;1.00;;;;;30.20;97418.00;;;;5088465;28;20200;-65
2022/08/09 11:08:44;;;;;;;2.97;1.27;;;;;30.40;97425.00;;;;5088887;28;20213;-68
2022/08/09 11:12:06;;;;;;;1.30;1.10;;;;;29.90;97411.00;;;;5081652;28;20536;-70
2022/08/09 11:14:57;;;;;;;1.67;1.17;;;;;29.50;97402.00;;;;5081082;28;20211;-68
2022/08/09 11:17:47;;;;;;;1.07;1.03;;;;;30.40;97403.00;;;;5076654;28;20201;-67
2022/08/09 11:20:43;;;;;;;4.40;1.43;;;;;31.10;97403.00;;;;5073428;28;20620;-68
2022/08/09 11:24:01;;;;;;;2.37;1.47;;;;;31.30;97397.00;;;;5068559;28;20206;-67
2022/08/09 11:26:51;;;;;;;2.43;1.43;;;;;31.90;97407.00;;;;5103387;22;20248;-72
2022/08/09 11:29:54;;;;;;;1.00;0.90;;;;;30.80;97400.00;;;;5084604;28;20194;-70
2022/08/09 11:32:48;;;;;;;5.10;1.37;;;;;31.60;97390.00;;;;5083796;28;20200;-76
2022/08/09 11:35:40;;;;;;;10.90;2.53;;;;;30.60;97378.00;;;;5087683;28;20201;-73
2022/08/09 11:38:31;;;;;;;2.67;1.20;;;;;30.70;97376.00;;;;5087266;28;20229;-73
2022/08/09 11:41:31;;;;;;;2.28;1.20;;;;;30.80;97380.00;;;;5082726;28;20196;-71
2022/08/09 11:44:20;;;;;;;2.25;1.17;;;;;29.70;97387.00;;;;5073994;28;20213;-72
2022/08/09 11:47:09;;;;;;;3.17;1.23;;;;;30.80;97386.00;;;;5084007;28;20223;-69
2022/08/09 11:50:00;;;;;;;0.87;0.83;;;;;32.50;97375.00;;;;5067128;28;20204;-75
2022/08/09 11:53:18;;;;;;;1.55;1.35;;;;;31.50;97372.00;;;;5077656;28;20203;-74
2022/08/09 11:56:27;;;;;;;2.55;1.40;;;;;32.60;97371.00;;;;5079672;28;20207;-75
2022/08/09 11:59:28;;;;;;;1.60;1.08;;;;;32.50;97385.00;;;;5081238;28;20222;-74
2022/08/09 12:02:18;;;;;;;2.10;1.50;;;;;30.20;97370.00;;;;5069287;28;20399;-72
2022/08/09 12:05:08;;;;;;;1.88;1.15;;;;;30.80;97379.00;;;;5076320;28;20384;-75
2022/08/09 12:07:57;;;;;;;1.83;1.20;;;;;33.00;97379.00;;;;5082301;28;20592;-75
2022/08/09 12:10:48;;;;;;;2.25;1.58;;;;;33.30;97376.00;;;;5079553;28;20205;-74
2022/08/09 12:13:39;;;;;;;1.50;1.08;;;;;31.40;97355.00;;;;5077519;28;20206;-73
2022/08/09 12:16:31;;;;;;;1.58;1.25;;;;;31.10;97355.00;;;;5082067;28;20210;-74
2022/08/09 12:19:28;;;;;;;1.75;1.30;;;;;33.70;97366.00;;;;5073146;28;20206;-74
2022/08/09 12:22:19;;;;;;;3.67;1.80;;;;;31.20;97357.00;;;;5090097;28;20198;-71
2022/08/09 12:25:12;;;;;;;2.17;2.03;;;;;32.30;97352.00;;;;5090667;28;20199;-73
2022/08/09 12:28:13;;;;;;;1.65;1.33;;;;;32.60;97356.00;;;;5085034;28;20227;-75
2022/08/09 12:31:02;;;;;;;1.77;1.15;;;;;33.30;97362.00;;;;5073984;28;20211;-74
2022/08/09 12:33:53;;;;;;;1.60;1.20;;;;;31.00;97350.00;;;;5083505;28;20200;-75
2022/08/09 12:36:53;;;;;;;1.33;1.23;;;;;32.20;97344.00;;;;5076501;28;20247;-74
2022/08/09 12:39:42;;;;;;;2.53;1.48;;;;;34.40;97346.00;;;;5072143;28;20212;-76
2022/08/09 12:42:31;;;;;;;2.40;1.23;;;;;32.40;97351.00;;;;5070019;28;20748;-74
2022/08/09 12:45:21;;;;;;;3.22;1.55;;;;;31.10;97339.00;;;;5078255;28;20198;-74
2022/08/09 12:48:12;;;;;;;2.67;1.73;;;;;32.60;97342.00;;;;5083493;28;20226;-76
2022/08/09 12:51:03;;;;;;;2.75;1.92;;;;;33.30;97327.00;;;;5093577;28;20208;-72
2022/08/09 12:54:00;;;;;;;2.22;1.13;;;;;33.90;97343.00;;;;5076733;28;20794;-74
2022/08/09 12:56:50;;;;;;;1.27;0.93;;;;;34.00;97334.00;;;;5082369;28;20620;-76
2022/08/09 12:59:39;;;;;;;1.42;1.30;;;32.30;50.50;35.10;97336.00;;;;5087654;28;20207;-76
2022/08/09 13:02:30;;;;;;;1.42;1.33;;;32.30;50.50;32.10;97335.00;;;;5074976;28;20200;-73
2022/08/09 13:05:20;;;;;;;1.35;0.93;;;32.30;47.20;34.50;97335.00;;;;5067498;28;20203;-75
2022/08/09 13:08:16;;;;;;;1.63;1.38;;;32.30;49.30;33.70;97333.00;;;;5077990;28;20230;-74
2022/08/09 13:11:05;;;;;;;2.47;1.23;;;32.40;48.00;34.90;97331.00;;;;5086225;28;20206;-74
2022/08/09 13:13:56;;;;;;;1.40;1.30;;;32.60;49.30;32.20;97332.00;;;;5073817;28;20727;-68
2022/08/09 13:16:49;;;;;;;1.40;1.20;;;32.10;47.40;32.80;97337.00;;;;5078125;28;20235;-67
2022/08/09 13:19:41;;;;;;;7.32;1.10;;;31.90;48.00;35.00;97324.00;;;;5080149;28;20195;-73
2022/08/09 13:22:30;;;;;;;1.20;0.85;;;32.00;49.40;35.10;97335.00;;;;5087967;28;20214;-74
2022/08/09 13:25:21;;;;;;;3.08;1.20;;;32.30;49.10;31.10;97319.00;;;;5089390;28;20196;-74
2022/08/09 13:28:14;;;;;;;1.38;1.27;;;31.90;47.40;34.40;97332.00;;;;5086262;28;20218;-70
2022/08/09 13:31:07;;;;;;;2.42;1.30;;;32.00;48.30;33.90;97338.00;;;;5087963;28;20195;-76
2022/08/09 13:33:59;;;;;;;2.17;1.10;;;32.10;48.10;35.40;97335.00;;;;5088205;28;20214;-77
2022/08/09 13:36:51;;;;;;;1.58;0.90;;;32.40;48.80;33.90;97329.00;;;;5078556;28;20269;-75
2022/08/09 13:39:40;;;;;;;1.50;1.30;;;32.80;46.70;33.40;97334.00;;;;5072202;28;20257;-75
2022/08/09 13:42:31;;;;;;;3.05;1.27;;;32.70;46.20;35.20;97343.00;;;;5079478;28;20202;-76
2022/08/09 13:45:20;;;;;;;2.47;1.40;;;32.60;48.60;34.20;97333.00;;;;5070216;28;20682;-73
2022/08/09 13:48:09;;;;;;;1.15;1.10;;;32.90;48.00;33.00;97340.00;;;;5080767;28;20219;-74
2022/08/09 13:50:57;;;;;;;5.07;1.20;;;32.70;46.80;34.80;97338.00;;;;5086241;28;20198;-76
2022/08/09 13:53:46;;;;;;;4.38;2.30;;;32.70;48.20;35.40;97347.00;;;;5079788;28;20199;-76
2022/08/09 13:56:36;;;;;;;1.52;1.42;;;32.80;47.90;33.80;97347.00;;;;5078150;28;20246;-76
2022/08/09 13:59:27;;;;;;;1.98;1.08;;;32.80;47.20;33.70;97329.00;;;;5081140;28;20191;-75
2022/08/09 14:02:15;;;;;;;4.97;1.23;;;32.90;47.70;35.20;97341.00;;;;5081828;28;20199;-76
2022/08/09 14:05:05;;;;;;;3.28;1.15;;;32.90;47.10;36.70;97326.00;;;;5072367;28;20759;-75
2022/08/09 14:07:53;;;;;;;2.03;1.20;;;33.30;48.50;36.70;97331.00;;;;5084913;28;20230;-77